createdAt,value
2018-01-22T00:06:51.501Z,4
2018-01-22T00:16:51.558Z,0
2018-01-22T00:26:51.479Z,0
2018-01-22T00:36:51.469Z,0
2018-01-22T00:46:51.475Z,0
2018-01-22T00:56:51.811Z,0
2018-01-22T01:06:51.498Z,0
2018-01-22T01:16:51.492Z,0
2018-01-22T01:26:51.401Z,4
2018-01-22T01:36:51.499Z,0
2018-01-22T01:46:51.440Z,4
2018-01-22T01:56:51.438Z,0
2018-01-22T02:06:51.497Z,0
2018-01-22T02:16:51.410Z,4
2018-01-22T02:26:51.495Z,4
2018-01-22T02:36:51.564Z,4
2018-01-22T02:46:51.416Z,0
2018-01-22T02:56:51.459Z,0
2018-01-22T03:06:51.440Z,0
2018-01-22T03:16:51.425Z,0
2018-01-22T03:26:51.469Z,4
2018-01-22T03:36:51.438Z,4
2018-01-22T03:46:51.392Z,4
2018-01-22T03:56:51.476Z,0
2018-01-22T04:06:51.394Z,4
2018-01-22T04:16:51.454Z,0
2018-01-22T04:26:51.453Z,4
2018-01-22T04:36:51.440Z,0
2018-01-22T04:46:51.385Z,4
2018-01-22T04:56:51.388Z,0
2018-01-22T05:06:51.348Z,4
2018-01-22T05:16:51.436Z,0
2018-01-22T05:26:51.443Z,0
2018-01-22T05:36:51.389Z,0
2018-01-22T05:47:36.737Z,0
2018-01-22T05:56:58.486Z,0
2018-01-22T06:06:51.324Z,4
2018-01-22T06:16:51.389Z,4
2018-01-22T06:26:51.326Z,4
2018-01-22T06:36:51.429Z,4
2018-01-22T06:46:51.386Z,4
2018-01-22T06:56:51.463Z,4
2018-01-22T07:06:51.411Z,12
2018-01-22T07:16:51.389Z,40
2018-01-22T07:26:51.329Z,84
2018-01-22T07:36:51.476Z,180
2018-01-22T07:46:51.406Z,308
2018-01-22T07:56:52.428Z,332
2018-01-22T08:06:51.482Z,480
2018-01-22T08:16:51.361Z,384
2018-01-22T08:26:51.393Z,548
2018-01-22T08:36:51.389Z,620
2018-01-22T08:46:51.389Z,800
2018-01-22T08:56:51.347Z,956
2018-01-22T09:06:51.530Z,1364
2018-01-22T09:16:51.443Z,1260
2018-01-22T09:26:51.483Z,2504
2018-01-22T09:36:51.550Z,3368
2018-01-22T09:46:51.562Z,4960
2018-01-22T09:56:51.479Z,2756
2018-01-22T10:06:51.546Z,2004
2018-01-22T10:16:51.536Z,1480
2018-01-22T10:26:51.479Z,2204
2018-01-22T10:36:51.572Z,1736
2018-01-22T10:46:51.489Z,2008
2018-01-22T10:56:51.696Z,1924
2018-01-22T11:06:51.518Z,1576
2018-01-22T11:16:51.737Z,1636
2018-01-22T11:26:51.530Z,1796
2018-01-22T11:36:51.582Z,1336
2018-01-22T11:46:51.582Z,2272
2018-01-22T11:56:51.623Z,2828
2018-01-22T12:06:51.623Z,4468
2018-01-22T12:16:51.639Z,3524
2018-01-22T12:26:51.616Z,2116
2018-01-22T12:36:51.696Z,5436
2018-01-22T12:46:51.578Z,4040
2018-01-22T12:56:51.611Z,5200
2018-01-22T13:06:51.646Z,5040
2018-01-22T13:16:51.593Z,4144
2018-01-22T13:26:51.674Z,3632
2018-01-22T13:36:52.725Z,4320
2018-01-22T13:46:51.750Z,3828
2018-01-22T13:56:51.699Z,3896
2018-01-22T14:06:51.817Z,3736
2018-01-22T14:16:51.665Z,3208
2018-01-22T14:26:51.760Z,2900
2018-01-22T14:36:51.745Z,2412
2018-01-22T14:46:51.943Z,1944
2018-01-22T14:56:51.749Z,1720
2018-01-22T15:06:51.802Z,1404
2018-01-22T15:16:51.862Z,968
2018-01-22T15:26:51.856Z,740
2018-01-22T15:36:51.798Z,472
2018-01-22T15:46:51.786Z,288
2018-01-22T15:56:51.801Z,136
2018-01-22T16:06:51.811Z,68
2018-01-22T16:16:51.864Z,24
2018-01-22T16:26:51.782Z,8
2018-01-22T16:36:51.854Z,0
2018-01-22T16:46:51.921Z,4
2018-01-22T16:56:51.914Z,0
2018-01-22T17:06:51.905Z,0
2018-01-22T17:16:51.819Z,0
2018-01-22T17:26:51.887Z,4
2018-01-22T17:36:51.945Z,0
2018-01-22T17:46:51.889Z,0
2018-01-22T17:56:51.837Z,0
2018-01-22T18:06:51.883Z,4
2018-01-22T18:16:51.897Z,0
2018-01-22T18:26:51.958Z,0
2018-01-22T18:36:51.948Z,0
2018-01-22T18:46:51.970Z,0
2018-01-22T18:56:51.923Z,0
2018-01-22T19:06:51.973Z,0
2018-01-22T19:16:51.942Z,0
2018-01-22T19:26:52.018Z,0
2018-01-22T19:36:52.059Z,0
2018-01-22T19:46:52.081Z,0
2018-01-22T19:56:52.019Z,0
2018-01-22T20:06:52.076Z,0
2018-01-22T20:16:52.088Z,0
2018-01-22T20:26:52.019Z,0
2018-01-22T20:36:52.076Z,0
2018-01-22T20:46:53.145Z,0
2018-01-22T20:56:52.129Z,0
2018-01-22T21:06:52.117Z,0
2018-01-22T21:16:52.120Z,0
2018-01-22T21:26:56.109Z,0
2018-01-22T21:36:52.100Z,0
2018-01-22T21:46:52.254Z,0
2018-01-22T21:56:52.194Z,0
2018-01-22T22:06:52.174Z,0
2018-01-22T22:16:52.162Z,0
2018-01-22T22:26:52.254Z,0
2018-01-22T22:36:54.305Z,0
2018-01-22T22:46:53.301Z,0
2018-01-22T22:56:53.490Z,0
2018-01-22T23:06:52.305Z,0
2018-01-22T23:16:53.228Z,0
2018-01-22T23:26:52.173Z,0
2018-01-22T23:36:52.225Z,0
2018-01-22T23:46:52.213Z,0
2018-01-22T23:56:52.253Z,0
